Time,TemperatureF,DewpointF,PressureIn,WindDirection,WindDirectionDegrees,WindSpeedMPH,WindSpeedGustMPH,Humidity,HourlyPrecipIn,Conditions,Clouds,dailyrainin,SoftwareType,DateUTC
2013-03-23 00:05:00,39.0,29.3,29.97,SW,225,0.0,-999.0,68,-99.99,,,0.00,Acu-Link.com,2013-03-23 04:05:00,
2013-03-23 00:36:00,38.8,29.5,29.97,SE,135,0.0,-999.0,69,-99.99,,,0.00,Acu-Link.com,2013-03-23 04:36:00,
2013-03-23 00:51:00,39.2,30.6,29.97,SSE,157,0.0,-999.0,71,-99.99,,,0.00,Acu-Link.com,2013-03-23 04:51:00,
2013-03-23 01:07:00,39.0,30.4,29.96,South,180,0.0,-999.0,71,-99.99,,,0.00,Acu-Link.com,2013-03-23 05:07:00,
2013-03-23 01:22:00,38.7,30.5,29.96,SSE,157,0.0,-999.0,72,-99.99,,,0.00,Acu-Link.com,2013-03-23 05:22:00,
2013-03-23 01:53:00,38.8,30.9,29.96,East,90,0.0,-999.0,73,-99.99,,,0.00,Acu-Link.com,2013-03-23 05:53:00,
2013-03-23 02:08:00,39.0,31.1,29.95,East,90,0.0,-999.0,73,-99.99,,,0.00,Acu-Link.com,2013-03-23 06:08:00,
2013-03-23 02:23:00,39.2,31.6,29.95,East,90,0.0,-999.0,74,-99.99,,,0.00,Acu-Link.com,2013-03-23 06:23:00,
2013-03-23 02:39:00,39.4,31.8,29.95,East,90,0.0,-999.0,74,-99.99,,,0.00,Acu-Link.com,2013-03-23 06:39:00,
2013-03-23 02:54:00,39.7,31.8,29.95,South,180,0.0,-999.0,73,-99.99,,,0.00,Acu-Link.com,2013-03-23 06:54:00,
2013-03-23 03:09:00,40.1,32.2,29.94,WSW,247,0.0,-999.0,73,-99.99,,,0.00,Acu-Link.com,2013-03-23 07:09:00,
2013-03-23 03:24:00,40.1,32.8,29.94,NE,45,0.0,-999.0,75,-99.99,,,0.00,Acu-Link.com,2013-03-23 07:24:00,
2013-03-23 03:40:00,40.8,33.2,29.93,ENE,67,0.0,-999.0,74,-99.99,,,0.00,Acu-Link.com,2013-03-23 07:40:00,
2013-03-23 03:55:00,41.2,34.2,29.92,ENE,67,0.0,-999.0,76,-99.99,,,0.00,Acu-Link.com,2013-03-23 07:55:00,
2013-03-23 04:10:00,41.2,34.2,29.92,ENE,67,0.0,-999.0,76,-99.99,,,0.00,Acu-Link.com,2013-03-23 08:10:00,
2013-03-23 04:26:00,41.2,33.9,29.92,NW,315,0.0,-999.0,75,-99.99,,,0.00,Acu-Link.com,2013-03-23 08:26:00,
2013-03-23 04:41:00,41.7,34.4,29.91,ENE,67,0.0,-999.0,75,-99.99,,,0.00,Acu-Link.com,2013-03-23 08:41:00,
2013-03-23 04:56:00,42.1,34.1,29.91,SSE,157,0.0,-999.0,73,-99.99,,,0.00,Acu-Link.com,2013-03-23 08:56:00,
2013-03-23 05:11:00,42.1,35.1,29.92,SSE,157,0.0,-999.0,76,-99.99,,,0.00,Acu-Link.com,2013-03-23 09:11:00,
2013-03-23 05:26:00,42.3,35.0,29.91,SSE,157,0.0,-999.0,75,-99.99,,,0.00,Acu-Link.com,2013-03-23 09:26:00,
2013-03-23 05:42:00,42.4,34.4,29.93,SSE,157,0.0,-999.0,73,-99.99,,,0.00,Acu-Link.com,2013-03-23 09:42:00,
2013-03-23 05:57:00,42.6,37.2,29.92,SSE,157,0.0,-999.0,81,-99.99,,,0.00,Acu-Link.com,2013-03-23 09:57:00,
2013-03-23 06:12:00,41.4,39.3,29.92,SSW,202,0.0,-999.0,92,-99.99,,,0.02,Acu-Link.com,2013-03-23 10:12:00,
2013-03-23 06:28:00,41.2,39.6,29.92,NNW,337,1.1,-999.0,94,-99.99,,,0.06,Acu-Link.com,2013-03-23 10:28:00,
2013-03-23 06:43:00,41.0,39.9,29.94,SW,225,0.0,-999.0,96,-99.99,,,0.08,Acu-Link.com,2013-03-23 10:43:00,
2013-03-23 06:58:00,41.0,39.9,29.95,SSE,157,0.0,-999.0,96,-99.99,,,0.10,Acu-Link.com,2013-03-23 10:58:00,
2013-03-23 07:14:00,41.0,40.2,29.95,SW,225,0.0,-999.0,97,-99.99,,,0.13,Acu-Link.com,2013-03-23 11:14:00,
2013-03-23 07:29:00,41.0,40.5,29.95,East,90,0.0,-999.0,98,-99.99,,,0.14,Acu-Link.com,2013-03-23 11:29:00,
2013-03-23 07:44:00,41.0,40.5,29.95,East,90,0.0,-999.0,98,-99.99,,,0.15,Acu-Link.com,2013-03-23 11:44:00,
2013-03-23 07:59:00,41.0,40.5,29.95,East,90,0.0,-999.0,98,-99.99,,,0.16,Acu-Link.com,2013-03-23 11:59:00,
2013-03-23 08:15:00,41.0,40.5,29.97,East,90,0.0,-999.0,98,-99.99,,,0.17,Acu-Link.com,2013-03-23 12:15:00,
2013-03-23 08:30:00,41.2,40.9,29.97,SSW,202,0.0,-999.0,99,-99.99,,,0.20,Acu-Link.com,2013-03-23 12:30:00,
2013-03-23 09:01:00,41.5,41.2,29.96,SE,135,0.0,-999.0,99,-99.99,,,0.23,Acu-Link.com,2013-03-23 13:01:00,
2013-03-23 09:17:00,41.9,41.6,29.95,South,180,0.0,-999.0,99,-99.99,,,0.25,Acu-Link.com,2013-03-23 13:17:00,
2013-03-23 09:32:00,41.9,41.6,29.96,North,0,0.0,-999.0,99,-99.99,,,0.26,Acu-Link.com,2013-03-23 13:32:00,
2013-03-23 09:47:00,42.1,41.8,29.95,WNW,292,0.0,-999.0,99,-99.99,,,0.27,Acu-Link.com,2013-03-23 13:47:00,
2013-03-23 10:02:00,42.3,42.0,29.96,NE,45,0.0,-999.0,99,-99.99,,,0.27,Acu-Link.com,2013-03-23 14:02:00,
2013-03-23 10:18:00,42.6,42.3,29.95,WNW,292,0.0,-999.0,99,-99.99,,,0.28,Acu-Link.com,2013-03-23 14:18:00,
2013-03-23 10:33:00,43.2,42.9,29.94,South,180,0.0,-999.0,99,-99.99,,,0.28,Acu-Link.com,2013-03-23 14:33:00,
2013-03-23 10:48:00,43.7,43.2,29.94,SSW,202,0.0,-999.0,98,-99.99,,,0.28,Acu-Link.com,2013-03-23 14:48:00,
2013-03-23 11:03:00,44.1,43.6,29.93,ESE,112,0.0,-999.0,98,-99.99,,,0.28,Acu-Link.com,2013-03-23 15:03:00,
2013-03-23 11:19:00,44.1,43.8,29.91,NW,315,4.2,-999.0,99,-99.99,,,0.28,Acu-Link.com,2013-03-23 15:19:00,
2013-03-23 11:34:00,43.9,43.6,29.94,WNW,292,2.2,-999.0,99,-99.99,,,0.28,Acu-Link.com,2013-03-23 15:34:00,
2013-03-23 11:49:00,44.1,43.8,29.93,SSE,157,0.0,-999.0,99,-99.99,,,0.29,Acu-Link.com,2013-03-23 15:49:00,
2013-03-23 12:04:00,44.2,43.9,29.94,NNE,22,0.0,-999.0,99,-99.99,,,0.29,Acu-Link.com,2013-03-23 16:04:00,
2013-03-23 12:20:00,44.2,43.7,29.94,West,270,0.0,-999.0,98,-99.99,,,0.29,Acu-Link.com,2013-03-23 16:20:00,
2013-03-23 12:35:00,44.6,44.1,29.93,ESE,112,0.0,-999.0,98,-99.99,,,0.29,Acu-Link.com,2013-03-23 16:35:00,
2013-03-23 12:50:00,44.8,44.3,29.92,South,180,0.0,-999.0,98,-99.99,,,0.29,Acu-Link.com,2013-03-23 16:50:00,
2013-03-23 13:36:00,45.9,45.1,29.91,South,180,0.0,-999.0,97,-99.99,,,0.29,Acu-Link.com,2013-03-23 17:36:00,
2013-03-23 13:52:00,46.2,45.1,29.91,WNW,292,0.0,-999.0,96,-99.99,,,0.29,Acu-Link.com,2013-03-23 17:52:00,
2013-03-23 14:07:00,46.6,45.5,29.90,ENE,67,0.0,-999.0,96,-99.99,,,0.29,Acu-Link.com,2013-03-23 18:07:00,
2013-03-23 14:22:00,47.1,45.5,29.89,ENE,67,2.2,-999.0,94,-99.99,,,0.29,Acu-Link.com,2013-03-23 18:22:00,
2013-03-23 14:37:00,47.8,46.4,29.89,ESE,112,0.0,-999.0,95,-99.99,,,0.29,Acu-Link.com,2013-03-23 18:37:00,
2013-03-23 15:08:00,49.1,47.2,29.87,SSE,157,0.0,-999.0,93,-99.99,,,0.29,Acu-Link.com,2013-03-23 19:08:00,
2013-03-23 15:23:00,49.8,47.0,29.87,ESE,112,0.0,-999.0,90,-99.99,,,0.29,Acu-Link.com,2013-03-23 19:23:00,
2013-03-23 15:38:00,50.2,47.4,29.86,WNW,292,0.0,-999.0,90,-99.99,,,0.29,Acu-Link.com,2013-03-23 19:38:00,
2013-03-23 15:53:00,50.9,47.8,29.85,SSE,157,0.0,-999.0,89,-99.99,,,0.29,Acu-Link.com,2013-03-23 19:53:00,
2013-03-23 16:09:00,51.4,47.4,29.84,SE,135,0.0,-999.0,86,-99.99,,,0.29,Acu-Link.com,2013-03-23 20:09:00,
2013-03-23 16:26:00,52.3,49.2,29.83,SSE,157,0.0,-999.0,89,-99.99,,,0.29,Acu-Link.com,2013-03-23 20:26:00,
2013-03-23 16:42:00,52.3,47.6,29.83,ESE,112,1.7,-999.0,84,-99.99,,,0.29,Acu-Link.com,2013-03-23 20:42:00,
2013-03-23 16:57:00,52.5,48.4,29.84,ESE,112,0.0,-999.0,86,-99.99,,,0.29,Acu-Link.com,2013-03-23 20:57:00,
2013-03-23 17:13:00,52.0,47.0,29.84,SSE,157,1.7,-999.0,83,-99.99,,,0.29,Acu-Link.com,2013-03-23 21:13:00,
2013-03-23 17:28:00,52.0,47.9,29.83,South,180,0.0,-999.0,86,-99.99,,,0.29,Acu-Link.com,2013-03-23 21:28:00,
2013-03-23 17:43:00,52.5,47.5,29.83,East,90,0.0,-999.0,83,-99.99,,,0.29,Acu-Link.com,2013-03-23 21:43:00,
2013-03-23 17:58:00,52.0,47.3,29.82,ESE,112,0.0,-999.0,84,-99.99,,,0.29,Acu-Link.com,2013-03-23 21:58:00,
2013-03-23 18:14:00,52.0,47.6,29.83,East,90,2.7,-999.0,85,-99.99,,,0.29,Acu-Link.com,2013-03-23 22:14:00,
2013-03-23 18:29:00,51.6,47.9,29.84,SSE,157,0.0,-999.0,87,-99.99,,,0.29,Acu-Link.com,2013-03-23 22:29:00,
2013-03-23 18:44:00,51.3,47.3,29.84,NE,45,2.2,-999.0,86,-99.99,,,0.29,Acu-Link.com,2013-03-23 22:44:00,
2013-03-23 19:00:00,50.9,47.2,29.85,ESE,112,0.0,-999.0,87,-99.99,,,0.29,Acu-Link.com,2013-03-23 23:00:00,
2013-03-23 19:15:00,50.9,47.5,29.86,East,90,0.0,-999.0,88,-99.99,,,0.29,Acu-Link.com,2013-03-23 23:15:00,
2013-03-23 19:30:00,50.5,47.7,29.85,SE,135,0.0,-999.0,90,-99.99,,,0.29,Acu-Link.com,2013-03-23 23:30:00,
2013-03-23 19:45:00,49.8,47.6,29.86,North,0,0.0,-999.0,92,-99.99,,,0.29,Acu-Link.com,2013-03-23 23:45:00,
2013-03-23 20:00:00,49.5,47.6,29.86,SE,135,0.0,-999.0,93,-99.99,,,0.29,Acu-Link.com,2013-03-24 00:00:00,
2013-03-23 20:31:00,49.3,47.1,29.84,East,90,0.0,-999.0,92,-99.99,,,0.29,Acu-Link.com,2013-03-24 00:31:00,
2013-03-23 20:46:00,49.1,46.9,29.84,ESE,112,0.0,-999.0,92,-99.99,,,0.29,Acu-Link.com,2013-03-24 00:46:00,
2013-03-23 21:02:00,48.7,46.5,29.83,SSE,157,0.0,-999.0,92,-99.99,,,0.29,Acu-Link.com,2013-03-24 01:02:00,
2013-03-23 21:17:00,48.7,46.8,29.83,South,180,0.0,-999.0,93,-99.99,,,0.29,Acu-Link.com,2013-03-24 01:17:00,
2013-03-23 21:32:00,48.4,46.5,29.83,SSE,157,0.0,-999.0,93,-99.99,,,0.29,Acu-Link.com,2013-03-24 01:32:00,
2013-03-23 21:47:00,48.2,46.6,29.84,ESE,112,0.0,-999.0,94,-99.99,,,0.29,Acu-Link.com,2013-03-24 01:47:00,
2013-03-23 22:03:00,48.2,46.6,29.84,East,90,1.7,-999.0,94,-99.99,,,0.29,Acu-Link.com,2013-03-24 02:03:00,
2013-03-23 22:18:00,48.2,46.3,29.85,ESE,112,0.0,-999.0,93,-99.99,,,0.29,Acu-Link.com,2013-03-24 02:18:00,
2013-03-23 22:33:00,48.0,46.1,29.83,ESE,112,2.7,-999.0,93,-99.99,,,0.29,Acu-Link.com,2013-03-24 02:33:00,
2013-03-23 22:48:00,47.8,45.9,29.84,ESE,112,2.2,-999.0,93,-99.99,,,0.29,Acu-Link.com,2013-03-24 02:48:00,
2013-03-23 23:04:00,47.7,45.8,29.85,ESE,112,3.2,-999.0,93,-99.99,,,0.29,Acu-Link.com,2013-03-24 03:04:00,
2013-03-23 23:19:00,47.7,45.8,29.84,SE,135,0.0,-999.0,93,-99.99,,,0.29,Acu-Link.com,2013-03-24 03:19:00,
2013-03-23 23:34:00,47.5,45.6,29.83,NE,45,2.7,-999.0,93,-99.99,,,0.29,Acu-Link.com,2013-03-24 03:34:00,
2013-03-23 23:50:00,47.3,45.4,29.80,ENE,67,4.2,-999.0,93,-99.99,,,0.29,Acu-Link.com,2013-03-24 03:50:00,